NCAR-RAP Real-Time Weather Data

Output produced by METARs form (25 March 2019  01:23 UTC)
found at http://weather.rap.ucar.edu/surface/
 
Conditions at: KHQZ observed 25 March 2019  00:50 UTC
Temperature: 23.0°C (73°F)
Dewpoint: 16.0°C (61°F) [RH = 65%]
Pressure (altimeter): 29.95 inches Hg (1014.3 mb)
Winds: from the SSE (160 degrees) at 14 MPH (12 knots; 6.2 m/s)
Visibility: 10 or more miles (16+ km)
Ceiling: at least 12,000 feet AGL
Clouds: sky clear below 12,000 feet AGL
Present Weather: no significant weather observed at this time
KHQZ 250050Z 16012KT 10SM CLR 23/16 A2995 RMK TS NE